CYXX

Abbotsford International Airport

Airport
ICAO code
CYXX
IATA Code
YXX
Summary
ICAO Region
NAM
ICAO Territory
Location

Abbotsford, British Columbia

Serving
Abbotsford
Elevation
194 ft
Coordinates
49° 1' 31" N , 122° 21' 48" W
KCC
Cfb
Airport BS
Bird Strike
Airport WX
Fog
Metar
Observation
CYXX 171800Z 25005KT 210V310 30SM SKC 26/16 A3002 RMK HZ SLP166 DENSITY ALT 1500FT
Station
Abbotsford, B. C.
Date/Time
2022-08-17 18:00:00
Wind direction
250°
Wind speed
05 kts
Lowest cloud amount
n/a
Temperature
26°C
Dew point
16°C
Humidity
54%
Weather condition
n/a

Description

Abbotsford International Airport is located near Abbotsford, British Columbia, Canada.

Climatology

Temperate Marine climate/Oceanic climate (Köppen climate classification Cfb). Moderately cool summer and comparatively warm winter.

Runways

Designator Length Width Surface Rops
01L/19R 457 30 GRS No/No
1/19 1624 61 ASP Yes/Yes
7/25 2926 61 PEM Yes/Yes

Airport map

Aerial View

SKYbrary Partners:

Safety knowledge contributed by: